createdAt,value
2019-04-10T00:00:06.684Z,1019.0826
2019-04-10T00:00:18.889Z,1019.0925
2019-04-10T00:00:30.644Z,1019.1054
2019-04-10T00:00:44.077Z,1019.0959
2019-04-10T00:00:55.165Z,1019.0516
2019-04-10T00:01:09.181Z,1019.0926
2019-04-10T00:01:19.815Z,1019.0988
2019-04-10T00:01:31.975Z,1019.1251
2019-04-10T00:01:44.638Z,1019.117
2019-04-10T00:01:55.642Z,1019.1493
2019-04-10T00:02:09.088Z,1019.0974
2019-04-10T00:02:20.308Z,1019.1185
2019-04-10T00:02:32.142Z,1019.1428
2019-04-10T00:02:43.976Z,1019.1251
2019-04-10T00:02:55.916Z,1019.1284
2019-04-10T00:03:08.253Z,1019.1365
2019-04-10T00:03:27.489Z,1019.1722
2019-04-10T00:03:37.112Z,1019.1235
2019-04-10T00:03:46.205Z,1019.1301
2019-04-10T00:03:57.171Z,1019.1156
2019-04-10T00:04:09.066Z,1019.1398
2019-04-10T00:04:21.127Z,1019.1578
2019-04-10T00:04:32.854Z,1019.1609
2019-04-10T00:04:45.282Z,1019.1303
2019-04-10T00:04:56.772Z,1019.132
2019-04-10T00:05:09.579Z,1019.1318
2019-04-10T00:05:21.391Z,1019.1417
2019-04-10T00:05:33.947Z,1019.176
2019-04-10T00:05:45.157Z,1019.1648
2019-04-10T00:05:57.100Z,1019.1633
2019-04-10T00:06:08.993Z,1019.1616
2019-04-10T00:06:21.639Z,1019.1389
2019-04-10T00:06:32.784Z,1019.1356
2019-04-10T00:06:44.650Z,1019.1603
2019-04-10T00:07:08.293Z,1019.1569
2019-04-10T00:07:14.864Z,1019.0954
2019-04-10T00:07:22.232Z,1019.1556
2019-04-10T00:07:34.060Z,1019.1443
2019-04-10T00:07:45.917Z,1019.1267
2019-04-10T00:07:57.784Z,1019.1542
2019-04-10T00:08:10.160Z,1019.1494
2019-04-10T00:08:21.866Z,1019.1333
2019-04-10T00:08:34.406Z,1019.1463
2019-04-10T00:08:46.400Z,1019.13
2019-04-10T00:08:58.792Z,1019.1253
2019-04-10T00:09:10.570Z,1019.1154
2019-04-10T00:09:21.921Z,1019.1204
2019-04-10T00:09:34.885Z,1019.0767
2019-04-10T00:09:47.475Z,1019.1026
2019-04-10T00:09:59.267Z,1019.1123
2019-04-10T00:10:10.414Z,1019.1076
2019-04-10T00:10:22.339Z,1019.0703
2019-04-10T00:10:34.196Z,1019.0948
2019-04-10T00:10:46.042Z,1019.0884
2019-04-10T00:10:58.524Z,1019.1356
2019-04-10T00:11:10.113Z,1019.111
2019-04-10T00:11:22.527Z,1019.1389
2019-04-10T00:11:34.592Z,1019.0949
2019-04-10T00:11:47.142Z,1019.1017
2019-04-10T00:11:59.112Z,1019.0936
2019-04-10T00:12:11.626Z,1019.1293
2019-04-10T00:12:23.319Z,1019.0823
2019-04-10T00:12:35.843Z,1019.1162
2019-04-10T00:12:47.722Z,1019.1132
2019-04-10T00:13:00.394Z,1019.1035
2019-04-10T00:13:12.095Z,1019.1099
2019-04-10T00:13:24.626Z,1019.113
2019-04-10T00:13:36.523Z,1019.1066
2019-04-10T00:13:49.025Z,1019.1196
2019-04-10T00:14:00.801Z,1019.1101
2019-04-10T00:14:12.321Z,1019.1051
2019-04-10T00:14:24.102Z,1019.1199
2019-04-10T00:14:36.654Z,1019.1085
2019-04-10T00:14:48.351Z,1019.089
2019-04-10T00:14:59.588Z,1019.1248
2019-04-10T00:15:11.416Z,1019.0972
2019-04-10T00:15:24.243Z,1019.0828
2019-04-10T00:15:36.030Z,1019.1378
2019-04-10T00:15:48.694Z,1019.0861
2019-04-10T00:15:59.749Z,1019.1202
2019-04-10T00:16:11.865Z,1019.1443
2019-04-10T00:16:24.411Z,1019.1379
2019-04-10T00:16:36.227Z,1019.1282
2019-04-10T00:16:48.811Z,1019.1413
2019-04-10T00:17:00.514Z,1019.122
2019-04-10T00:17:13.069Z,1019.1365
2019-04-10T00:17:24.980Z,1019.1593
2019-04-10T00:17:37.467Z,1019.1495
2019-04-10T00:17:49.462Z,1019.1609
2019-04-10T00:18:01.938Z,1019.1854
2019-04-10T00:18:13.702Z,1019.1253
2019-04-10T00:18:26.189Z,1019.1594
2019-04-10T00:18:38.060Z,1019.1514
2019-04-10T00:18:50.508Z,1019.1887
2019-04-10T00:19:02.341Z,1019.1724
2019-04-10T00:19:13.549Z,1019.184
2019-04-10T00:19:25.499Z,1019.1273
2019-04-10T00:19:37.971Z,1019.1841
2019-04-10T00:19:49.212Z,1019.1923
2019-04-10T00:20:02.310Z,1019.1564
2019-04-10T00:20:14.169Z,1019.1452
2019-04-10T00:20:26.712Z,1019.1744
2019-04-10T00:20:38.631Z,1019.1907
2019-04-10T00:20:51.085Z,1019.1551
2019-04-10T00:21:02.429Z,1019.1777
2019-04-10T00:21:15.451Z,1019.134
2019-04-10T00:21:27.238Z,1019.181
2019-04-10T00:21:39.678Z,1019.1649
2019-04-10T00:21:51.840Z,1019.1552
2019-04-10T00:22:04.236Z,1019.186
2019-04-10T00:22:15.606Z,1019.1795
2019-04-10T00:22:28.393Z,1019.1846
2019-04-10T00:22:40.269Z,1019.2203
2019-04-10T00:22:52.763Z,1019.1571
2019-04-10T00:23:03.913Z,1019.1553
2019-04-10T00:23:15.811Z,1019.1702
2019-04-10T00:23:27.654Z,1019.1472
2019-04-10T00:23:39.566Z,1019.1635
2019-04-10T00:23:51.572Z,1019.1912
2019-04-10T00:24:03.863Z,1019.1281
2019-04-10T00:24:15.547Z,1019.1669
2019-04-10T00:24:28.098Z,1019.1702
2019-04-10T00:24:40.053Z,1019.167
2019-04-10T00:24:52.452Z,1019.1802
2019-04-10T00:25:04.264Z,1019.2076
2019-04-10T00:25:15.649Z,1019.1849
2019-04-10T00:25:28.346Z,1019.1979
2019-04-10T00:25:41.158Z,1019.2323
2019-04-10T00:25:53.281Z,1019.2078
2019-04-10T00:26:05.531Z,1019.2273
2019-04-10T00:26:17.394Z,1019.1818
2019-04-10T00:26:29.638Z,1019.2224
2019-04-10T00:26:41.839Z,1019.2062
2019-04-10T00:26:54.354Z,1019.2468
2019-04-10T00:27:06.089Z,1019.2273
2019-04-10T00:27:17.343Z,1019.2647
2019-04-10T00:27:29.190Z,1019.2501
2019-04-10T00:27:41.142Z,1019.2728
2019-04-10T00:27:53.000Z,1019.2338
2019-04-10T00:28:05.299Z,1019.3167
2019-04-10T00:28:17.068Z,1019.2602
2019-04-10T00:28:29.585Z,1019.2472
2019-04-10T00:28:41.473Z,1019.2714
2019-04-10T00:28:53.871Z,1019.2634
2019-04-10T00:29:05.724Z,1019.2617
2019-04-10T00:29:18.120Z,1019.2438
2019-04-10T00:29:30.105Z,1019.2372
2019-04-10T00:29:42.497Z,1019.2617
2019-04-10T00:29:54.371Z,1019.3039
2019-04-10T00:30:06.855Z,1019.2796
2019-04-10T00:30:18.707Z,1019.2876
2019-04-10T00:30:31.238Z,1019.2603
2019-04-10T00:30:43.019Z,1019.2374
2019-04-10T00:30:55.569Z,1019.2779
2019-04-10T00:31:07.387Z,1019.2926
2019-04-10T00:31:19.929Z,1019.2326
2019-04-10T00:31:31.790Z,1019.2665
2019-04-10T00:31:42.941Z,1019.2749
2019-04-10T00:31:54.781Z,1019.2327
2019-04-10T00:32:07.719Z,1019.231
2019-04-10T00:32:19.615Z,1019.2487
2019-04-10T00:32:32.118Z,1019.2846
2019-04-10T00:32:43.908Z,1019.2683
2019-04-10T00:32:56.383Z,1019.231
2019-04-10T00:33:08.290Z,1019.2554
2019-04-10T00:33:20.761Z,1019.2652
2019-04-10T00:33:32.572Z,1019.2539
2019-04-10T00:33:43.779Z,1019.2765
2019-04-10T00:33:55.616Z,1019.3026
2019-04-10T00:34:07.593Z,1019.2587
2019-04-10T00:34:19.465Z,1019.2895
2019-04-10T00:34:31.813Z,1019.2604
2019-04-10T00:34:43.158Z,1019.2539
2019-04-10T00:34:55.835Z,1019.2943
2019-04-10T00:35:07.808Z,1019.2504
2019-04-10T00:35:19.765Z,1019.2781
2019-04-10T00:35:31.733Z,1019.2736
2019-04-10T00:35:43.709Z,1019.2979
2019-04-10T00:35:56.026Z,1019.2781
2019-04-10T00:36:08.068Z,1019.3141
2019-04-10T00:36:20.303Z,1019.2572
2019-04-10T00:36:31.914Z,1019.246
2019-04-10T00:36:43.752Z,1019.2718
2019-04-10T00:36:55.666Z,1019.2006
2019-04-10T00:37:19.010Z,1019.2151
2019-04-10T00:37:26.659Z,1019.2557
2019-04-10T00:37:33.879Z,1019.3076
2019-04-10T00:37:45.080Z,1019.2296
2019-04-10T00:37:57.506Z,1019.2963
2019-04-10T00:38:09.254Z,1019.2834
2019-04-10T00:38:21.563Z,1019.2443
2019-04-10T00:38:33.694Z,1019.2767
2019-04-10T00:38:46.191Z,1019.2429
2019-04-10T00:38:57.984Z,1019.2753
2019-04-10T00:39:09.175Z,1019.2948
2019-04-10T00:39:21.056Z,1019.2737
2019-04-10T00:39:32.970Z,1019.2461
2019-04-10T00:39:44.988Z,1019.2556
2019-04-10T00:39:57.088Z,1019.2444
2019-04-10T00:40:08.812Z,1019.2508
2019-04-10T00:40:21.409Z,1019.3046
2019-04-10T00:40:33.329Z,1019.2704
2019-04-10T00:40:45.771Z,1019.2751
2019-04-10T00:40:57.507Z,1019.2899
2019-04-10T00:41:10.097Z,1019.2963
2019-04-10T00:41:21.916Z,1019.2704
2019-04-10T00:41:34.412Z,1019.2948
2019-04-10T00:41:46.157Z,1019.3095
2019-04-10T00:41:57.510Z,1019.2817
2019-04-10T00:42:09.338Z,1019.2948
2019-04-10T00:42:21.306Z,1019.3013
2019-04-10T00:42:33.153Z,1019.2768
2019-04-10T00:42:45.307Z,1019.2575
2019-04-10T00:42:57.493Z,1019.2557
2019-04-10T00:43:08.808Z,1019.2541
2019-04-10T00:43:20.681Z,1019.2365
2019-04-10T00:43:32.910Z,1019.277
2019-04-10T00:43:44.363Z,1019.3093
2019-04-10T00:43:57.268Z,1019.2461
2019-04-10T00:44:09.045Z,1019.2901
2019-04-10T00:44:21.610Z,1019.259
2019-04-10T00:44:32.811Z,1019.2851
2019-04-10T00:44:45.862Z,1019.2592
2019-04-10T00:44:57.583Z,1019.2787
2019-04-10T00:45:09.391Z,1019.264
2019-04-10T00:45:21.610Z,1019.2804
2019-04-10T00:45:33.437Z,1019.2963
2019-04-10T00:45:45.871Z,1019.2868
2019-04-10T00:45:57.928Z,1019.2868
2019-04-10T00:46:10.253Z,1019.269
2019-04-10T00:46:22.130Z,1019.2625
2019-04-10T00:46:34.329Z,1019.2983
2019-04-10T00:46:46.488Z,1019.2496
2019-04-10T00:46:58.973Z,1019.2951
2019-04-10T00:47:10.821Z,1019.2642
2019-04-10T00:47:21.884Z,1019.3064
2019-04-10T00:47:33.812Z,1019.2722
2019-04-10T00:47:45.650Z,1019.2546
2019-04-10T00:47:57.544Z,1019.2805
2019-04-10T00:48:09.927Z,1019.2301
2019-04-10T00:48:21.207Z,1019.2562
2019-04-10T00:48:33.933Z,1019.2237
2019-04-10T00:48:46.131Z,1019.2676
2019-04-10T00:48:58.644Z,1019.2676
2019-04-10T00:49:09.765Z,1019.245
2019-04-10T00:49:21.798Z,1019.2532
2019-04-10T00:49:33.536Z,1019.2871
2019-04-10T00:49:46.337Z,1019.2564
2019-04-10T00:49:58.270Z,1019.25
2019-04-10T00:50:10.416Z,1019.2548
2019-04-10T00:50:22.293Z,1019.2804
2019-04-10T00:50:34.770Z,1019.2223
2019-04-10T00:50:46.581Z,1019.2452
2019-04-10T00:50:57.776Z,1019.2516
2019-04-10T00:51:09.606Z,1019.2435
2019-04-10T00:51:21.481Z,1019.2044
2019-04-10T00:51:33.413Z,1019.2416
2019-04-10T00:51:45.797Z,1019.2321
2019-04-10T00:51:57.515Z,1019.2614
2019-04-10T00:52:09.858Z,1019.2338
2019-04-10T00:52:21.879Z,1019.2435
2019-04-10T00:52:34.444Z,1019.216
2019-04-10T00:52:46.192Z,1019.2061
2019-04-10T00:52:57.497Z,1019.2193
2019-04-10T00:53:10.173Z,1019.219
2019-04-10T00:53:23.198Z,1019.2501
2019-04-10T00:53:35.140Z,1019.2338
2019-04-10T00:53:47.550Z,1019.229
2019-04-10T00:53:59.319Z,1019.2535
2019-04-10T00:54:11.874Z,1019.2438
2019-04-10T00:54:23.816Z,1019.2224
2019-04-10T00:54:35.628Z,1019.2633
2019-04-10T00:54:47.545Z,1019.294
2019-04-10T00:54:59.565Z,1019.2568
2019-04-10T00:55:11.416Z,1019.2568
2019-04-10T00:55:23.751Z,1019.2374
2019-04-10T00:55:35.591Z,1019.2358
2019-04-10T00:55:47.836Z,1019.2277
2019-04-10T00:55:59.968Z,1019.2486
2019-04-10T00:56:12.442Z,1019.1935
2019-04-10T00:56:24.246Z,1019.252
2019-04-10T00:56:35.423Z,1019.2439
2019-04-10T00:56:47.268Z,1019.236
2019-04-10T00:56:59.143Z,1019.2716
2019-04-10T00:57:11.060Z,1019.2586
2019-04-10T00:57:23.535Z,1019.2749
2019-04-10T00:57:34.847Z,1019.2424
2019-04-10T00:57:47.467Z,1019.2214
2019-04-10T00:57:59.481Z,1019.2276
2019-04-10T00:58:12.085Z,1019.2345
2019-04-10T00:58:23.241Z,1019.2717
2019-04-10T00:58:35.290Z,1019.2831
2019-04-10T00:58:47.864Z,1019.3009
2019-04-10T00:58:59.876Z,1019.2781
2019-04-10T00:59:12.167Z,1019.2732
2019-04-10T00:59:24.109Z,1019.2765
2019-04-10T00:59:36.534Z,1019.2668
2019-04-10T00:59:48.480Z,1019.3057
2019-04-10T01:00:00.887Z,1019.2912
2019-04-10T01:00:12.793Z,1019.2863
2019-04-10T01:00:24.002Z,1019.2652
2019-04-10T01:00:36.888Z,1019.2781
2019-04-10T01:00:50.270Z,1019.2913
2019-04-10T01:01:01.619Z,1019.2637
2019-04-10T01:01:13.854Z,1019.2864
2019-04-10T01:01:25.319Z,1019.28
2019-04-10T01:01:37.727Z,1019.2848
2019-04-10T01:01:50.195Z,1019.2767
2019-04-10T01:02:02.515Z,1019.28
2019-04-10T01:02:13.865Z,1019.2798
2019-04-10T01:02:26.589Z,1019.3058
2019-04-10T01:02:38.768Z,1019.2684
2019-04-10T01:02:51.267Z,1019.2636
2019-04-10T01:03:03.344Z,1019.288
2019-04-10T01:03:15.627Z,1019.2993
2019-04-10T01:03:27.452Z,1019.314
2019-04-10T01:03:40.044Z,1019.3074
2019-04-10T01:03:51.926Z,1019.3058
2019-04-10T01:04:04.359Z,1019.2507
2019-04-10T01:04:15.693Z,1019.2637
2019-04-10T01:04:28.605Z,1019.2376
2019-04-10T01:04:40.490Z,1019.2539
2019-04-10T01:04:52.959Z,1019.2717
2019-04-10T01:05:04.165Z,1019.2848
2019-04-10T01:05:15.999Z,1019.2781
2019-04-10T01:05:27.834Z,1019.2424
2019-04-10T01:05:41.632Z,1019.2684
2019-04-10T01:05:53.561Z,1019.262
2019-04-10T01:06:05.933Z,1019.2231
2019-04-10T01:06:17.291Z,1019.2572
2019-04-10T01:06:30.186Z,1019.2327
2019-04-10T01:06:42.159Z,1019.2634
2019-04-10T01:06:54.520Z,1019.2893
2019-04-10T01:07:05.986Z,1019.2343
2019-04-10T01:07:18.886Z,1019.2506
2019-04-10T01:07:36.387Z,1019.2619
2019-04-10T01:07:44.663Z,1019.2619
2019-04-10T01:07:56.476Z,1019.2343
2019-04-10T01:08:08.683Z,1019.2246
2019-04-10T01:08:20.267Z,1019.2603
2019-04-10T01:08:32.786Z,1019.2667
2019-04-10T01:08:44.713Z,1019.2471
2019-04-10T01:08:57.170Z,1019.2715
2019-04-10T01:09:09.005Z,1019.257
2019-04-10T01:09:21.482Z,1019.2567
2019-04-10T01:09:33.237Z,1019.2829
2019-04-10T01:09:45.748Z,1019.3056
2019-04-10T01:09:57.594Z,1019.2862
2019-04-10T01:10:10.171Z,1019.312
2019-04-10T01:10:22.001Z,1019.2974
2019-04-10T01:10:33.201Z,1019.2893
2019-04-10T01:10:45.038Z,1019.3005
2019-04-10T01:10:56.904Z,1019.3298
2019-04-10T01:11:08.886Z,1019.3329
2019-04-10T01:11:21.057Z,1019.3283
2019-04-10T01:11:32.826Z,1019.2941
2019-04-10T01:11:45.489Z,1019.2909
2019-04-10T01:11:57.378Z,1019.2665
2019-04-10T01:12:09.808Z,1019.2664
2019-04-10T01:12:21.556Z,1019.3234
2019-04-10T01:12:33.965Z,1019.3394
2019-04-10T01:12:46.011Z,1019.3393
2019-04-10T01:12:58.704Z,1019.2971
2019-04-10T01:13:10.660Z,1019.3217
2019-04-10T01:13:22.972Z,1019.3249
2019-04-10T01:13:34.663Z,1019.2728
2019-04-10T01:13:47.084Z,1019.3087
2019-04-10T01:13:59.206Z,1019.3247
2019-04-10T01:14:11.636Z,1019.2778
2019-04-10T01:14:23.385Z,1019.3165
2019-04-10T01:14:35.866Z,1019.3264
2019-04-10T01:14:47.758Z,1019.3134
2019-04-10T01:15:00.246Z,1019.3134
2019-04-10T01:15:12.059Z,1019.3085
2019-04-10T01:15:24.555Z,1019.2955
2019-04-10T01:15:36.479Z,1019.289
2019-04-10T01:15:49.042Z,1019.2841
2019-04-10T01:16:00.944Z,1019.2938
2019-04-10T01:16:13.324Z,1019.3264
2019-04-10T01:16:25.063Z,1019.3328
2019-04-10T01:16:37.428Z,1019.3231
2019-04-10T01:16:49.564Z,1019.3309
2019-04-10T01:17:02.120Z,1019.3264
2019-04-10T01:17:13.686Z,1019.3228
2019-04-10T01:17:26.032Z,1019.3115
2019-04-10T01:17:38.208Z,1019.3342
2019-04-10T01:17:50.686Z,1019.2841
2019-04-10T01:18:02.452Z,1019.3245
2019-04-10T01:18:13.811Z,1019.2952
2019-04-10T01:18:26.785Z,1019.3148
2019-04-10T01:18:39.388Z,1019.3116
2019-04-10T01:18:51.345Z,1019.3195
2019-04-10T01:19:03.731Z,1019.3213
2019-04-10T01:19:15.531Z,1019.3698
2019-04-10T01:19:28.027Z,1019.3132
2019-04-10T01:19:39.840Z,1019.3148
2019-04-10T01:19:52.316Z,1019.3001
2019-04-10T01:20:03.510Z,1019.3471
2019-04-10T01:20:15.616Z,1019.3228
2019-04-10T01:20:27.261Z,1019.3228
2019-04-10T01:20:39.796Z,1019.3146
2019-04-10T01:20:51.111Z,1019.3115
2019-04-10T01:21:04.029Z,1019.3098
2019-04-10T01:21:15.725Z,1019.3325
2019-04-10T01:21:28.434Z,1019.3342
2019-04-10T01:21:40.454Z,1019.2984
2019-04-10T01:21:52.742Z,1019.3423
2019-04-10T01:22:04.195Z,1019.3275
2019-04-10T01:22:16.786Z,1019.3293
2019-04-10T01:22:28.862Z,1019.3066
2019-04-10T01:22:41.448Z,1019.3309
2019-04-10T01:22:52.619Z,1019.3342
2019-04-10T01:23:05.697Z,1019.2821
2019-04-10T01:23:17.361Z,1019.2871
2019-04-10T01:23:29.350Z,1019.3048
2019-04-10T01:23:41.451Z,1019.3228
2019-04-10T01:23:53.267Z,1019.3033
2019-04-10T01:24:05.709Z,1019.3391
2019-04-10T01:24:17.494Z,1019.3245
2019-04-10T01:24:29.921Z,1019.3261
2019-04-10T01:24:41.789Z,1019.3245
2019-04-10T01:24:54.398Z,1019.3503
2019-04-10T01:25:06.127Z,1019.3099
2019-04-10T01:25:18.594Z,1019.3261
2019-04-10T01:25:30.406Z,1019.3326
2019-04-10T01:25:42.930Z,1019.3488
2019-04-10T01:25:54.728Z,1019.2983
2019-04-10T01:26:07.004Z,1019.334
2019-04-10T01:26:19.150Z,1019.3439
2019-04-10T01:26:31.592Z,1019.3439
2019-04-10T01:26:43.302Z,1019.3618
2019-04-10T01:26:55.816Z,1019.3504
2019-04-10T01:27:07.709Z,1019.3781
2019-04-10T01:27:20.044Z,1019.3129
2019-04-10T01:27:31.973Z,1019.3473
2019-04-10T01:27:43.147Z,1019.3797
2019-04-10T01:27:54.991Z,1019.3488
2019-04-10T01:28:07.034Z,1019.3959
2019-04-10T01:28:18.912Z,1019.344
2019-04-10T01:28:31.087Z,1019.375
2019-04-10T01:28:42.911Z,1019.3264
2019-04-10T01:28:55.535Z,1019.3441
2019-04-10T01:29:07.397Z,1019.3571
2019-04-10T01:29:19.654Z,1019.357
2019-04-10T01:29:31.246Z,1019.3229
2019-04-10T01:29:43.961Z,1019.362
2019-04-10T01:29:54.961Z,1019.3782
2019-04-10T01:30:07.169Z,1019.3669
2019-04-10T01:30:18.765Z,1019.3393
2019-04-10T01:30:30.652Z,1019.354
2019-04-10T01:30:42.505Z,1019.3605
2019-04-10T01:30:54.929Z,1019.367
2019-04-10T01:31:06.740Z,1019.3638
2019-04-10T01:31:19.825Z,1019.3898
2019-04-10T01:31:31.090Z,1019.3428
2019-04-10T01:31:43.509Z,1019.3638
2019-04-10T01:31:55.249Z,1019.3248
2019-04-10T01:32:07.688Z,1019.354
2019-04-10T01:32:19.633Z,1019.3378
2019-04-10T01:32:32.708Z,1019.3168
2019-04-10T01:32:44.483Z,1019.3345
2019-04-10T01:32:56.544Z,1019.3557
2019-04-10T01:33:08.264Z,1019.3251
2019-04-10T01:33:20.681Z,1019.3298
2019-04-10T01:33:32.496Z,1019.3478
2019-04-10T01:33:43.821Z,1019.3186
2019-04-10T01:33:56.802Z,1019.3218
2019-04-10T01:34:09.397Z,1019.3203
2019-04-10T01:34:21.321Z,1019.3267
2019-04-10T01:34:33.686Z,1019.3414
2019-04-10T01:34:45.466Z,1019.3657
2019-04-10T01:34:58.712Z,1019.3495
2019-04-10T01:35:09.979Z,1019.3657
2019-04-10T01:35:22.427Z,1019.3512
2019-04-10T01:35:34.188Z,1019.3723
2019-04-10T01:35:46.650Z,1019.3463
2019-04-10T01:35:58.554Z,1019.3412
2019-04-10T01:36:10.980Z,1019.317
2019-04-10T01:36:22.755Z,1019.3025
2019-04-10T01:36:34.055Z,1019.3446
2019-04-10T01:36:46.027Z,1019.3041
2019-04-10T01:36:58.496Z,1019.3593
2019-04-10T01:37:10.233Z,1019.3236
2019-04-10T01:37:21.584Z,1019.3091
2019-04-10T01:37:45.066Z,1019.3203
2019-04-10T01:37:51.760Z,1019.3253
2019-04-10T01:38:01.307Z,1019.3382
2019-04-10T01:38:12.052Z,1019.2654
2019-04-10T01:38:23.888Z,1019.2993
2019-04-10T01:38:35.843Z,1019.3284
2019-04-10T01:38:47.685Z,1019.2864
2019-04-10T01:38:59.933Z,1019.3222
2019-04-10T01:39:11.346Z,1019.3026
2019-04-10T01:39:24.252Z,1019.3254
2019-04-10T01:39:36.101Z,1019.3027
2019-04-10T01:39:48.601Z,1019.319
2019-04-10T01:40:01.001Z,1019.3239
2019-04-10T01:40:12.961Z,1019.3286
2019-04-10T01:40:24.657Z,1019.3386
2019-04-10T01:40:37.298Z,1019.3336
2019-04-10T01:40:48.505Z,1019.3433
2019-04-10T01:41:01.415Z,1019.3807
2019-04-10T01:41:13.243Z,1019.2831
2019-04-10T01:41:25.840Z,1019.322
2019-04-10T01:41:37.059Z,1019.3465
2019-04-10T01:41:49.952Z,1019.3256
2019-04-10T01:42:01.852Z,1019.3075
2019-04-10T01:42:14.543Z,1019.3318
2019-04-10T01:42:25.582Z,1019.2993
2019-04-10T01:42:37.495Z,1019.3206
2019-04-10T01:43:02.033Z,1019.3482
2019-04-10T01:43:08.051Z,1019.2898
2019-04-10T01:43:18.285Z,1019.3225
2019-04-10T01:43:27.828Z,1019.3223
2019-04-10T01:43:39.624Z,1019.3287
2019-04-10T01:43:51.515Z,1019.3272
2019-04-10T01:44:03.553Z,1019.3304
2019-04-10T01:44:15.390Z,1019.3206
2019-04-10T01:44:27.289Z,1019.3112
2019-04-10T01:44:39.291Z,1019.2931
2019-04-10T01:44:51.235Z,1019.2901
2019-04-10T01:45:03.028Z,1019.3339
2019-04-10T01:45:15.385Z,1019.332
2019-04-10T01:45:27.241Z,1019.2853
2019-04-10T01:45:39.780Z,1019.3322
2019-04-10T01:45:51.666Z,1019.3013
2019-04-10T01:46:04.171Z,1019.2785
2019-04-10T01:46:15.902Z,1019.2982
2019-04-10T01:46:28.445Z,1019.3063
2019-04-10T01:46:40.334Z,1019.3289
2019-04-10T01:46:52.907Z,1019.2818
2019-04-10T01:47:04.655Z,1019.3597
2019-04-10T01:47:17.131Z,1019.3435
2019-04-10T01:47:28.955Z,1019.337
2019-04-10T01:47:41.443Z,1019.3029
2019-04-10T01:47:53.277Z,1019.3581
2019-04-10T01:48:05.783Z,1019.2851
2019-04-10T01:48:17.511Z,1019.3208
2019-04-10T01:48:30.144Z,1019.3387
2019-04-10T01:48:41.823Z,1019.311
2019-04-10T01:48:53.381Z,1019.2786
2019-04-10T01:49:05.219Z,1019.2851
2019-04-10T01:49:17.639Z,1019.2755
2019-04-10T01:49:29.401Z,1019.2706
2019-04-10T01:49:40.604Z,1019.298
2019-04-10T01:49:53.649Z,1019.324
2019-04-10T01:50:06.355Z,1019.3046
2019-04-10T01:50:18.345Z,1019.3159
2019-04-10T01:50:30.486Z,1019.3015
2019-04-10T01:50:42.360Z,1019.3012
2019-04-10T01:50:54.863Z,1019.3013
2019-04-10T01:51:06.693Z,1019.2882
2019-04-10T01:51:17.729Z,1019.3304
2019-04-10T01:51:29.559Z,1019.3143
2019-04-10T01:51:41.482Z,1019.2785
2019-04-10T01:51:53.382Z,1019.2835
2019-04-10T01:52:05.248Z,1019.3225
2019-04-10T01:52:17.313Z,1019.3289
2019-04-10T01:52:29.145Z,1019.2932
2019-04-10T01:52:41.442Z,1019.3337
2019-04-10T01:52:53.386Z,1019.3143
2019-04-10T01:53:05.516Z,1019.3095
2019-04-10T01:53:17.666Z,1019.2769
2019-04-10T01:53:30.036Z,1019.345
2019-04-10T01:53:41.933Z,1019.2965
2019-04-10T01:53:54.371Z,1019.3062
2019-04-10T01:54:06.867Z,1019.3518
2019-04-10T01:54:17.903Z,1019.3094
2019-04-10T01:54:29.744Z,1019.3339
2019-04-10T01:54:44.243Z,1019.3208
2019-04-10T01:54:55.487Z,1019.347
2019-04-10T01:55:16.737Z,1019.3421
2019-04-10T01:55:25.038Z,1019.3339
2019-04-10T01:55:34.243Z,1019.3244
2019-04-10T01:55:47.040Z,1019.363
2019-04-10T01:55:59.631Z,1019.3468
2019-04-10T01:56:21.764Z,1019.3565
2019-04-10T01:56:29.351Z,1019.3435
2019-04-10T01:56:36.853Z,1019.3209
2019-04-10T01:56:48.560Z,1019.3404
2019-04-10T01:57:00.522Z,1019.3452
2019-04-10T01:57:13.157Z,1019.3598
2019-04-10T01:57:24.183Z,1019.3502
2019-04-10T01:57:36.617Z,1019.3518
2019-04-10T01:57:48.408Z,1019.3712
2019-04-10T01:58:00.884Z,1019.3159
2019-04-10T01:58:12.715Z,1019.3387
2019-04-10T01:58:25.270Z,1019.3613
2019-04-10T01:58:37.000Z,1019.3241
2019-04-10T01:58:48.322Z,1019.3663
2019-04-10T01:59:01.302Z,1019.3613
2019-04-10T01:59:13.845Z,1019.3175
2019-04-10T01:59:25.606Z,1019.3273
2019-04-10T01:59:36.783Z,1019.3681
2019-04-10T01:59:48.723Z,1019.3534
2019-04-10T02:00:00.611Z,1019.3566
2019-04-10T02:00:13.199Z,1019.2899
2019-04-10T02:00:24.344Z,1019.3451
2019-04-10T02:00:36.183Z,1019.35
2019-04-10T02:00:48.266Z,1019.3418
2019-04-10T02:00:59.886Z,1019.3549
2019-04-10T02:01:12.227Z,1019.3435
2019-04-10T02:01:24.146Z,1019.2965
2019-04-10T02:01:36.615Z,1019.2851
2019-04-10T02:01:48.425Z,1019.2901
2019-04-10T02:02:00.964Z,1019.3259
2019-04-10T02:02:12.660Z,1019.3159
2019-04-10T02:02:23.993Z,1019.3013
2019-04-10T02:02:36.996Z,1019.3275
2019-04-10T02:02:49.579Z,1019.3095
2019-04-10T02:03:01.379Z,1019.2918
2019-04-10T02:03:12.591Z,1019.2999
2019-04-10T02:03:25.646Z,1019.2918
2019-04-10T02:03:38.280Z,1019.3176
2019-04-10T02:03:49.934Z,1019.2706
2019-04-10T02:04:01.303Z,1019.3145
2019-04-10T02:04:14.266Z,1019.2739
2019-04-10T02:04:26.809Z,1019.2917
2019-04-10T02:04:38.195Z,1019.3306
2019-04-10T02:04:52.154Z,1019.2691
2019-04-10T02:05:03.924Z,1019.3065
2019-04-10T02:05:16.541Z,1019.2853
2019-04-10T02:05:28.571Z,1019.2756
2019-04-10T02:05:40.803Z,1019.2966
2019-04-10T02:05:52.604Z,1019.2707
2019-04-10T02:06:05.149Z,1019.2414
2019-04-10T02:06:17.019Z,1019.2479
2019-04-10T02:06:29.437Z,1019.2578
2019-04-10T02:06:41.182Z,1019.2773
2019-04-10T02:06:53.577Z,1019.2302
2019-04-10T02:07:05.653Z,1019.274
2019-04-10T02:07:18.034Z,1019.2757
2019-04-10T02:07:29.913Z,1019.2594
2019-04-10T02:07:42.343Z,1019.3211
2019-04-10T02:08:02.910Z,1019.2968
2019-04-10T02:08:10.250Z,1019.2838
2019-04-10T02:08:19.789Z,1019.2904
2019-04-10T02:08:31.938Z,1019.3181
2019-04-10T02:08:43.563Z,1019.2742
2019-04-10T02:08:56.336Z,1019.2758
2019-04-10T02:09:08.218Z,1019.2564
2019-04-10T02:09:21.284Z,1019.3197
2019-04-10T02:09:33.136Z,1019.2709
2019-04-10T02:09:45.843Z,1019.3001
2019-04-10T02:09:56.930Z,1019.2921
2019-04-10T02:10:09.958Z,1019.292
2019-04-10T02:10:21.770Z,1019.2645
2019-04-10T02:10:34.252Z,1019.2906
2019-04-10T02:10:45.485Z,1019.2824
2019-04-10T02:10:57.322Z,1019.2776
2019-04-10T02:11:09.156Z,1019.2971
2019-04-10T02:11:21.737Z,1019.3018
2019-04-10T02:11:32.872Z,1019.2517
2019-04-10T02:11:45.999Z,1019.2745
2019-04-10T02:11:58.518Z,1019.242
2019-04-10T02:12:10.369Z,1019.247
2019-04-10T02:12:21.344Z,1019.3005
2019-04-10T02:12:33.271Z,1019.255
2019-04-10T02:12:45.191Z,1019.2404
2019-04-10T02:12:57.064Z,1019.2421
2019-04-10T02:13:09.414Z,1019.2224
2019-04-10T02:13:20.950Z,1019.2501
2019-04-10T02:13:33.718Z,1019.2064
2019-04-10T02:13:45.684Z,1019.2405
2019-04-10T02:13:58.224Z,1019.2226
2019-04-10T02:14:09.385Z,1019.2228
2019-04-10T02:14:22.351Z,1019.2145
2019-04-10T02:14:34.309Z,1019.2031
2019-04-10T02:14:46.803Z,1019.1999
2019-04-10T02:14:57.886Z,1019.1967
2019-04-10T02:15:11.801Z,1019.2195
2019-04-10T02:15:22.553Z,1019.1674
2019-04-10T02:15:34.483Z,1019.2081
2019-04-10T02:15:46.385Z,1019.2211
2019-04-10T02:15:58.565Z,1019.1934
2019-04-10T02:16:10.324Z,1019.2064
2019-04-10T02:16:22.884Z,1019.1838
2019-04-10T02:16:34.832Z,1019.1869
2019-04-10T02:16:47.278Z,1019.1528
2019-04-10T02:16:59.018Z,1019.135
2019-04-10T02:17:10.535Z,1019.1479
2019-04-10T02:17:22.346Z,1019.1333
2019-04-10T02:17:34.719Z,1019.1447
2019-04-10T02:17:46.583Z,1019.1171
2019-04-10T02:17:57.901Z,1019.1105
2019-04-10T02:18:10.868Z,1019.13
2019-04-10T02:18:23.477Z,1019.1381